Pagrindinis puslapis
METAR-TAF:

METAR-TAF

Oro uostai :

Rurenabakė, Bolivija

platuma: 14-28S, ilguma: 067-34W, Aukštis: 204 m

Dabartinis oras

Ataskaita buvo paskelbta 2 valandos ir 24 minutes, ne 23:00 UTC
Ramus vėjas
Temperatūra 25°C
Drėgmė 74%
Slėgis 1014 hPa
Matomumas 10 km arba daugiau
Mažai debesys ne aukštis 1500 ft
Išsisklaidę debesys ne aukštis 20000 ft

METAR: SLRQ 162300Z 00000KT 9999 FEW015 SCT200 25/20 Q1014

Laikas: 21:24 (01:24 UTC)

Prognozė

Ataskaita buvo paskelbta 15 valandos ir 9 minutes, ne 10:15 UTC
Prognozė galioja nuo 16 metu 12 UTC su 17 metu 12 UTC
Vėjas kt iš Šiaurės
Matomumas 10 km arba daugiau
Išsisklaidę debesys ne aukštis 1500 ft
Laikinai
nuo 16 metu 14 UTC su 16 metu 18 UTC
Vėjas 10 kt iš Rytų/Pietryčių
Išsisklaidę debesys ne aukštis 2000 ft
Išsisklaidę debesys ne aukštis 8000 ft

TAF: SLRQ 161015Z 1612/1712 00000KT 9999 SCT015 TX28/1620Z TN18/1710Z TEMPO 1614/1618 12010KT SCT020 SCT080

Orai ataskaitas ir orų prognozės (METAR, TAF).

turimą stotys yra geltonos ir raudonos taškus žemėlapyje.

Perkelti pele per norėdami pamatyti stoties vardą.

Tada spustelėkite, norėdami matyti oro stebėjimo ir prognozės.

Norėdami pakeisti žemėlapį: spustelėkite ant žalios mygtukų su juodo kryžiaus žemyn,; žalią mygtuką su brūkšneliu, jei norite nutolinti; arba žalių rodyklių gretimoms žemėlapius.


METAR-TAF: